sensor_id;sensor_type;location;lat;lon;timestamp;P1;durP1;ratioP1;P2;durP2;ratioP2
33367;SDS011;19724;51.114;13.906;2022-12-07T00:00:49;74.65;;;31.00;;
33367;SDS011;19724;51.114;13.906;2022-12-07T00:03:14;61.90;;;28.33;;
33367;SDS011;19724;51.114;13.906;2022-12-07T00:05:40;57.22;;;26.02;;
33367;SDS011;19724;51.114;13.906;2022-12-07T00:08:05;70.57;;;33.55;;
33367;SDS011;19724;51.114;13.906;2022-12-07T00:10:33;64.88;;;28.40;;
33367;SDS011;19724;51.114;13.906;2022-12-07T00:12:59;61.88;;;27.25;;
33367;SDS011;19724;51.114;13.906;2022-12-07T00:15:24;65.70;;;28.65;;
33367;SDS011;19724;51.114;13.906;2022-12-07T00:17:50;57.15;;;26.65;;
33367;SDS011;19724;51.114;13.906;2022-12-07T00:20:15;64.30;;;27.58;;
33367;SDS011;19724;51.114;13.906;2022-12-07T00:22:41;58.50;;;27.25;;
33367;SDS011;19724;51.114;13.906;2022-12-07T00:25:06;60.03;;;26.17;;
33367;SDS011;19724;51.114;13.906;2022-12-07T00:27:32;58.38;;;27.15;;
33367;SDS011;19724;51.114;13.906;2022-12-07T00:29:57;48.33;;;24.38;;
33367;SDS011;19724;51.114;13.906;2022-12-07T00:32:23;57.50;;;27.27;;
33367;SDS011;19724;51.114;13.906;2022-12-07T00:34:48;45.70;;;25.02;;
33367;SDS011;19724;51.114;13.906;2022-12-07T00:37:14;52.63;;;24.80;;
33367;SDS011;19724;51.114;13.906;2022-12-07T00:39:39;63.15;;;27.60;;
33367;SDS011;19724;51.114;13.906;2022-12-07T00:42:05;53.97;;;25.83;;
33367;SDS011;19724;51.114;13.906;2022-12-07T00:44:30;51.38;;;24.55;;
33367;SDS011;19724;51.114;13.906;2022-12-07T00:46:56;61.42;;;27.58;;
33367;SDS011;19724;51.114;13.906;2022-12-07T00:49:22;60.47;;;28.08;;
33367;SDS011;19724;51.114;13.906;2022-12-07T00:51:47;48.15;;;26.98;;
33367;SDS011;19724;51.114;13.906;2022-12-07T00:54:13;61.65;;;27.33;;
33367;SDS011;19724;51.114;13.906;2022-12-07T00:56:39;68.60;;;29.20;;
33367;SDS011;19724;51.114;13.906;2022-12-07T00:59:05;57.38;;;26.60;;
33367;SDS011;19724;51.114;13.906;2022-12-07T01:01:32;62.33;;;26.35;;
33367;SDS011;19724;51.114;13.906;2022-12-07T01:03:59;59.78;;;26.95;;
33367;SDS011;19724;51.114;13.906;2022-12-07T01:06:26;48.55;;;23.15;;
33367;SDS011;19724;51.114;13.906;2022-12-07T01:08:52;53.70;;;26.77;;
33367;SDS011;19724;51.114;13.906;2022-12-07T01:11:19;47.85;;;22.48;;
33367;SDS011;19724;51.114;13.906;2022-12-07T01:13:46;58.08;;;25.92;;
33367;SDS011;19724;51.114;13.906;2022-12-07T01:16:14;66.38;;;28.38;;
33367;SDS011;19724;51.114;13.906;2022-12-07T01:18:41;48.20;;;21.80;;
33367;SDS011;19724;51.114;13.906;2022-12-07T01:21:09;52.90;;;25.10;;
33367;SDS011;19724;51.114;13.906;2022-12-07T01:23:38;51.53;;;24.60;;
33367;SDS011;19724;51.114;13.906;2022-12-07T01:26:06;48.17;;;24.05;;
33367;SDS011;19724;51.114;13.906;2022-12-07T01:28:34;49.45;;;25.20;;
33367;SDS011;19724;51.114;13.906;2022-12-07T01:31:00;52.55;;;24.05;;
33367;SDS011;19724;51.114;13.906;2022-12-07T01:33:29;56.05;;;27.63;;
33367;SDS011;19724;51.114;13.906;2022-12-07T01:36:03;52.15;;;25.98;;
33367;SDS011;19724;51.114;13.906;2022-12-07T01:38:31;65.00;;;27.20;;
33367;SDS011;19724;51.114;13.906;2022-12-07T01:40:57;60.05;;;28.33;;
33367;SDS011;19724;51.114;13.906;2022-12-07T01:43:24;58.97;;;27.98;;
33367;SDS011;19724;51.114;13.906;2022-12-07T01:45:52;57.35;;;26.33;;
33367;SDS011;19724;51.114;13.906;2022-12-07T01:48:19;65.20;;;30.33;;
33367;SDS011;19724;51.114;13.906;2022-12-07T01:51:12;62.88;;;26.58;;
33367;SDS011;19724;51.114;13.906;2022-12-07T01:53:41;56.42;;;27.00;;
33367;SDS011;19724;51.114;13.906;2022-12-07T01:56:11;60.70;;;28.00;;
33367;SDS011;19724;51.114;13.906;2022-12-07T01:58:44;56.35;;;26.63;;
33367;SDS011;19724;51.114;13.906;2022-12-07T02:01:10;69.53;;;30.35;;
33367;SDS011;19724;51.114;13.906;2022-12-07T02:03:40;53.50;;;29.50;;
33367;SDS011;19724;51.114;13.906;2022-12-07T02:06:07;66.80;;;30.33;;
33367;SDS011;19724;51.114;13.906;2022-12-07T02:08:34;104.93;;;31.75;;
33367;SDS011;19724;51.114;13.906;2022-12-07T02:11:00;64.40;;;28.85;;
33367;SDS011;19724;51.114;13.906;2022-12-07T02:13:28;53.90;;;27.92;;
33367;SDS011;19724;51.114;13.906;2022-12-07T02:30:06;59.10;;;26.85;;
33367;SDS011;19724;51.114;13.906;2022-12-07T02:35:19;41.08;;;21.30;;
33367;SDS011;19724;51.114;13.906;2022-12-07T02:38:10;45.00;;;22.95;;
33367;SDS011;19724;51.114;13.906;2022-12-07T02:41:07;47.47;;;25.17;;
33367;SDS011;19724;51.114;13.906;2022-12-07T02:43:42;43.90;;;25.17;;
33367;SDS011;19724;51.114;13.906;2022-12-07T02:46:21;44.67;;;23.65;;
33367;SDS011;19724;51.114;13.906;2022-12-07T02:49:07;53.03;;;23.33;;
33367;SDS011;19724;51.114;13.906;2022-12-07T02:51:38;52.92;;;25.70;;
33367;SDS011;19724;51.114;13.906;2022-12-07T02:54:08;42.45;;;22.98;;
33367;SDS011;19724;51.114;13.906;2022-12-07T03:10:27;45.30;;;23.30;;
33367;SDS011;19724;51.114;13.906;2022-12-07T03:13:08;38.75;;;21.15;;
33367;SDS011;19724;51.114;13.906;2022-12-07T03:15:46;51.03;;;25.02;;
33367;SDS011;19724;51.114;13.906;2022-12-07T03:18:21;48.50;;;23.58;;
33367;SDS011;19724;51.114;13.906;2022-12-07T03:20:49;45.05;;;23.40;;
33367;SDS011;19724;51.114;13.906;2022-12-07T03:23:17;50.20;;;25.02;;
33367;SDS011;19724;51.114;13.906;2022-12-07T03:25:45;51.45;;;22.58;;
33367;SDS011;19724;51.114;13.906;2022-12-07T03:28:14;44.97;;;23.50;;
33367;SDS011;19724;51.114;13.906;2022-12-07T03:31:06;48.85;;;24.60;;
33367;SDS011;19724;51.114;13.906;2022-12-07T03:33:36;52.22;;;25.90;;
33367;SDS011;19724;51.114;13.906;2022-12-07T03:36:18;53.35;;;25.23;;
33367;SDS011;19724;51.114;13.906;2022-12-07T03:38:51;54.93;;;25.70;;
33367;SDS011;19724;51.114;13.906;2022-12-07T03:41:22;61.15;;;25.25;;
33367;SDS011;19724;51.114;13.906;2022-12-07T03:43:51;54.38;;;25.65;;
33367;SDS011;19724;51.114;13.906;2022-12-07T03:46:20;50.65;;;26.42;;
33367;SDS011;19724;51.114;13.906;2022-12-07T03:49:04;76.38;;;28.10;;
33367;SDS011;19724;51.114;13.906;2022-12-07T03:51:38;54.20;;;26.08;;
33367;SDS011;19724;51.114;13.906;2022-12-07T03:54:25;61.28;;;26.30;;
33367;SDS011;19724;51.114;13.906;2022-12-07T03:56:59;48.20;;;21.92;;
33367;SDS011;19724;51.114;13.906;2022-12-07T03:59:26;60.75;;;26.23;;
33367;SDS011;19724;51.114;13.906;2022-12-07T04:01:54;69.22;;;26.77;;
33367;SDS011;19724;51.114;13.906;2022-12-07T04:04:22;54.22;;;26.20;;
33367;SDS011;19724;51.114;13.906;2022-12-07T04:06:49;58.05;;;25.95;;
33367;SDS011;19724;51.114;13.906;2022-12-07T04:09:15;59.97;;;27.92;;
33367;SDS011;19724;51.114;13.906;2022-12-07T04:11:41;66.55;;;26.98;;
33367;SDS011;19724;51.114;13.906;2022-12-07T04:14:06;51.45;;;26.38;;
33367;SDS011;19724;51.114;13.906;2022-12-07T04:16:47;73.22;;;29.45;;
33367;SDS011;19724;51.114;13.906;2022-12-07T04:19:15;55.47;;;26.60;;
33367;SDS011;19724;51.114;13.906;2022-12-07T04:21:41;73.55;;;31.45;;
33367;SDS011;19724;51.114;13.906;2022-12-07T04:24:07;66.00;;;27.70;;
33367;SDS011;19724;51.114;13.906;2022-12-07T04:26:32;58.35;;;25.75;;
33367;SDS011;19724;51.114;13.906;2022-12-07T04:28:58;58.60;;;25.25;;
33367;SDS011;19724;51.114;13.906;2022-12-07T04:31:23;61.95;;;27.33;;
33367;SDS011;19724;51.114;13.906;2022-12-07T04:33:49;49.58;;;27.17;;
33367;SDS011;19724;51.114;13.906;2022-12-07T04:36:15;59.92;;;27.55;;
33367;SDS011;19724;51.114;13.906;2022-12-07T04:38:40;59.17;;;27.45;;
33367;SDS011;19724;51.114;13.906;2022-12-07T04:41:06;45.95;;;23.48;;
33367;SDS011;19724;51.114;13.906;2022-12-07T04:43:33;60.33;;;30.48;;
33367;SDS011;19724;51.114;13.906;2022-12-07T04:45:59;72.30;;;29.23;;
33367;SDS011;19724;51.114;13.906;2022-12-07T04:48:24;65.93;;;29.38;;
33367;SDS011;19724;51.114;13.906;2022-12-07T04:50:50;64.30;;;29.60;;
33367;SDS011;19724;51.114;13.906;2022-12-07T04:53:16;59.78;;;28.20;;
33367;SDS011;19724;51.114;13.906;2022-12-07T04:55:41;70.32;;;28.38;;
33367;SDS011;19724;51.114;13.906;2022-12-07T04:58:07;53.25;;;25.60;;
33367;SDS011;19724;51.114;13.906;2022-12-07T05:00:33;58.03;;;28.88;;
33367;SDS011;19724;51.114;13.906;2022-12-07T05:02:58;55.95;;;25.88;;
33367;SDS011;19724;51.114;13.906;2022-12-07T05:05:24;74.25;;;28.20;;
33367;SDS011;19724;51.114;13.906;2022-12-07T05:07:49;58.83;;;26.30;;
33367;SDS011;19724;51.114;13.906;2022-12-07T05:10:15;52.58;;;25.58;;
33367;SDS011;19724;51.114;13.906;2022-12-07T05:12:41;61.85;;;25.98;;
33367;SDS011;19724;51.114;13.906;2022-12-07T05:15:06;56.63;;;25.40;;
33367;SDS011;19724;51.114;13.906;2022-12-07T05:17:32;52.88;;;26.13;;
33367;SDS011;19724;51.114;13.906;2022-12-07T05:19:58;55.88;;;24.80;;
33367;SDS011;19724;51.114;13.906;2022-12-07T05:22:23;56.17;;;23.40;;
33367;SDS011;19724;51.114;13.906;2022-12-07T05:24:52;48.58;;;24.63;;
33367;SDS011;19724;51.114;13.906;2022-12-07T05:27:18;62.13;;;25.20;;
33367;SDS011;19724;51.114;13.906;2022-12-07T05:29:44;67.75;;;28.48;;
33367;SDS011;19724;51.114;13.906;2022-12-07T05:32:09;47.55;;;23.88;;
33367;SDS011;19724;51.114;13.906;2022-12-07T05:34:35;54.85;;;25.15;;
33367;SDS011;19724;51.114;13.906;2022-12-07T05:37:00;54.95;;;24.30;;
33367;SDS011;19724;51.114;13.906;2022-12-07T05:39:26;52.13;;;23.95;;
33367;SDS011;19724;51.114;13.906;2022-12-07T05:41:51;52.83;;;23.02;;
33367;SDS011;19724;51.114;13.906;2022-12-07T05:44:35;45.72;;;21.58;;
33367;SDS011;19724;51.114;13.906;2022-12-07T05:47:01;47.70;;;22.73;;
33367;SDS011;19724;51.114;13.906;2022-12-07T05:49:26;38.15;;;18.77;;
33367;SDS011;19724;51.114;13.906;2022-12-07T05:51:52;44.45;;;20.25;;
33367;SDS011;19724;51.114;13.906;2022-12-07T05:54:17;44.78;;;22.23;;
33367;SDS011;19724;51.114;13.906;2022-12-07T05:56:43;34.92;;;17.40;;
33367;SDS011;19724;51.114;13.906;2022-12-07T05:59:09;31.60;;;17.67;;
33367;SDS011;19724;51.114;13.906;2022-12-07T06:01:56;41.88;;;19.67;;
33367;SDS011;19724;51.114;13.906;2022-12-07T06:04:27;41.50;;;19.52;;
33367;SDS011;19724;51.114;13.906;2022-12-07T06:06:55;35.83;;;18.75;;
33367;SDS011;19724;51.114;13.906;2022-12-07T06:09:21;45.75;;;20.40;;
33367;SDS011;19724;51.114;13.906;2022-12-07T06:11:49;36.60;;;17.98;;
33367;SDS011;19724;51.114;13.906;2022-12-07T06:14:33;24.88;;;14.23;;
33367;SDS011;19724;51.114;13.906;2022-12-07T06:16:59;31.00;;;17.10;;
33367;SDS011;19724;51.114;13.906;2022-12-07T06:19:25;29.00;;;17.15;;
33367;SDS011;19724;51.114;13.906;2022-12-07T06:21:51;34.75;;;17.48;;
33367;SDS011;19724;51.114;13.906;2022-12-07T06:24:16;31.23;;;17.08;;
33367;SDS011;19724;51.114;13.906;2022-12-07T06:26:42;34.05;;;17.77;;
33367;SDS011;19724;51.114;13.906;2022-12-07T06:29:08;29.23;;;17.35;;
33367;SDS011;19724;51.114;13.906;2022-12-07T06:31:35;28.70;;;14.88;;
33367;SDS011;19724;51.114;13.906;2022-12-07T06:34:01;34.17;;;18.45;;
33367;SDS011;19724;51.114;13.906;2022-12-07T06:36:28;31.42;;;15.80;;
33367;SDS011;19724;51.114;13.906;2022-12-07T06:38:54;29.77;;;16.15;;
33367;SDS011;19724;51.114;13.906;2022-12-07T06:41:20;33.38;;;16.80;;
33367;SDS011;19724;51.114;13.906;2022-12-07T06:43:46;38.30;;;18.23;;
33367;SDS011;19724;51.114;13.906;2022-12-07T06:46:12;28.95;;;15.07;;
33367;SDS011;19724;51.114;13.906;2022-12-07T06:48:39;29.13;;;15.52;;
33367;SDS011;19724;51.114;13.906;2022-12-07T06:51:04;28.50;;;16.10;;
33367;SDS011;19724;51.114;13.906;2022-12-07T06:53:30;24.45;;;14.20;;
33367;SDS011;19724;51.114;13.906;2022-12-07T06:55:55;24.50;;;13.40;;
33367;SDS011;19724;51.114;13.906;2022-12-07T06:58:21;24.23;;;12.90;;
33367;SDS011;19724;51.114;13.906;2022-12-07T07:00:48;22.13;;;13.93;;
33367;SDS011;19724;51.114;13.906;2022-12-07T07:03:15;21.20;;;13.10;;
33367;SDS011;19724;51.114;13.906;2022-12-07T07:05:41;21.55;;;13.25;;
33367;SDS011;19724;51.114;13.906;2022-12-07T07:08:07;25.48;;;14.35;;
33367;SDS011;19724;51.114;13.906;2022-12-07T07:10:33;22.63;;;12.38;;
33367;SDS011;19724;51.114;13.906;2022-12-07T07:12:59;25.20;;;14.65;;
33367;SDS011;19724;51.114;13.906;2022-12-07T07:15:24;22.65;;;13.30;;
33367;SDS011;19724;51.114;13.906;2022-12-07T07:17:50;24.48;;;13.90;;
33367;SDS011;19724;51.114;13.906;2022-12-07T07:20:15;27.33;;;15.13;;
33367;SDS011;19724;51.114;13.906;2022-12-07T07:22:41;28.75;;;16.15;;
33367;SDS011;19724;51.114;13.906;2022-12-07T07:25:07;33.05;;;16.85;;
33367;SDS011;19724;51.114;13.906;2022-12-07T07:27:32;30.67;;;17.08;;
33367;SDS011;19724;51.114;13.906;2022-12-07T07:29:58;35.33;;;17.23;;
33367;SDS011;19724;51.114;13.906;2022-12-07T07:32:23;42.80;;;19.25;;
33367;SDS011;19724;51.114;13.906;2022-12-07T07:34:49;30.17;;;17.38;;
33367;SDS011;19724;51.114;13.906;2022-12-07T07:37:14;30.42;;;17.33;;
33367;SDS011;19724;51.114;13.906;2022-12-07T07:39:40;29.27;;;16.55;;
33367;SDS011;19724;51.114;13.906;2022-12-07T07:42:05;32.47;;;15.63;;
33367;SDS011;19724;51.114;13.906;2022-12-07T07:44:32;37.05;;;18.02;;
33367;SDS011;19724;51.114;13.906;2022-12-07T07:46:58;31.83;;;16.80;;
33367;SDS011;19724;51.114;13.906;2022-12-07T07:49:24;27.35;;;15.88;;
33367;SDS011;19724;51.114;13.906;2022-12-07T07:51:50;34.80;;;17.05;;
33367;SDS011;19724;51.114;13.906;2022-12-07T07:54:15;37.83;;;17.92;;
33367;SDS011;19724;51.114;13.906;2022-12-07T07:56:41;23.08;;;14.45;;
33367;SDS011;19724;51.114;13.906;2022-12-07T07:59:06;31.90;;;16.45;;
33367;SDS011;19724;51.114;13.906;2022-12-07T08:01:32;27.73;;;16.45;;
33367;SDS011;19724;51.114;13.906;2022-12-07T08:03:57;34.08;;;17.45;;
33367;SDS011;19724;51.114;13.906;2022-12-07T08:06:23;31.52;;;19.65;;
33367;SDS011;19724;51.114;13.906;2022-12-07T08:08:48;32.47;;;19.15;;
33367;SDS011;19724;51.114;13.906;2022-12-07T08:11:14;38.25;;;18.73;;
33367;SDS011;19724;51.114;13.906;2022-12-07T08:13:39;35.92;;;20.58;;
33367;SDS011;19724;51.114;13.906;2022-12-07T08:16:06;36.25;;;19.20;;
33367;SDS011;19724;51.114;13.906;2022-12-07T08:18:37;40.13;;;22.17;;
33367;SDS011;19724;51.114;13.906;2022-12-07T08:21:03;39.67;;;21.52;;
33367;SDS011;19724;51.114;13.906;2022-12-07T08:23:29;39.13;;;21.48;;
33367;SDS011;19724;51.114;13.906;2022-12-07T08:25:59;38.20;;;20.48;;
33367;SDS011;19724;51.114;13.906;2022-12-07T08:28:26;38.78;;;21.35;;
33367;SDS011;19724;51.114;13.906;2022-12-07T08:30:52;35.88;;;21.25;;
33367;SDS011;19724;51.114;13.906;2022-12-07T08:33:23;36.38;;;19.75;;
33367;SDS011;19724;51.114;13.906;2022-12-07T08:35:48;47.55;;;23.85;;
33367;SDS011;19724;51.114;13.906;2022-12-07T08:38:14;42.33;;;23.60;;
33367;SDS011;19724;51.114;13.906;2022-12-07T08:40:39;42.38;;;22.73;;
33367;SDS011;19724;51.114;13.906;2022-12-07T08:43:05;42.55;;;23.70;;
33367;SDS011;19724;51.114;13.906;2022-12-07T08:45:30;38.20;;;22.98;;
33367;SDS011;19724;51.114;13.906;2022-12-07T08:48:02;31.15;;;20.58;;
33367;SDS011;19724;51.114;13.906;2022-12-07T08:50:32;37.33;;;20.70;;
33367;SDS011;19724;51.114;13.906;2022-12-07T08:52:59;40.30;;;21.98;;
33367;SDS011;19724;51.114;13.906;2022-12-07T08:55:25;36.80;;;20.27;;
33367;SDS011;19724;51.114;13.906;2022-12-07T08:57:52;35.75;;;20.58;;
33367;SDS011;19724;51.114;13.906;2022-12-07T09:00:18;40.53;;;23.13;;
33367;SDS011;19724;51.114;13.906;2022-12-07T09:02:43;36.63;;;21.02;;
33367;SDS011;19724;51.114;13.906;2022-12-07T09:05:10;41.42;;;23.70;;
33367;SDS011;19724;51.114;13.906;2022-12-07T09:07:36;36.90;;;23.30;;
33367;SDS011;19724;51.114;13.906;2022-12-07T09:10:04;37.60;;;22.88;;
33367;SDS011;19724;51.114;13.906;2022-12-07T09:12:30;43.03;;;23.20;;
33367;SDS011;19724;51.114;13.906;2022-12-07T09:14:55;35.33;;;22.45;;
33367;SDS011;19724;51.114;13.906;2022-12-07T09:17:21;32.47;;;20.70;;
33367;SDS011;19724;51.114;13.906;2022-12-07T09:19:46;40.22;;;22.33;;
33367;SDS011;19724;51.114;13.906;2022-12-07T09:22:12;39.70;;;21.13;;
33367;SDS011;19724;51.114;13.906;2022-12-07T09:24:37;30.30;;;19.23;;
33367;SDS011;19724;51.114;13.906;2022-12-07T09:27:03;35.33;;;21.15;;
33367;SDS011;19724;51.114;13.906;2022-12-07T09:29:29;30.92;;;19.77;;
33367;SDS011;19724;51.114;13.906;2022-12-07T09:31:54;38.67;;;21.20;;
33367;SDS011;19724;51.114;13.906;2022-12-07T09:34:19;37.30;;;20.95;;
33367;SDS011;19724;51.114;13.906;2022-12-07T09:36:46;37.95;;;20.45;;
33367;SDS011;19724;51.114;13.906;2022-12-07T09:39:11;35.58;;;20.80;;
33367;SDS011;19724;51.114;13.906;2022-12-07T09:41:37;33.72;;;20.10;;
33367;SDS011;19724;51.114;13.906;2022-12-07T09:44:05;34.63;;;19.08;;
33367;SDS011;19724;51.114;13.906;2022-12-07T09:46:50;34.95;;;17.83;;
33367;SDS011;19724;51.114;13.906;2022-12-07T09:49:18;37.63;;;20.33;;
33367;SDS011;19724;51.114;13.906;2022-12-07T09:51:46;30.15;;;17.88;;
33367;SDS011;19724;51.114;13.906;2022-12-07T09:54:13;26.48;;;16.70;;
33367;SDS011;19724;51.114;13.906;2022-12-07T09:56:41;25.40;;;15.52;;
33367;SDS011;19724;51.114;13.906;2022-12-07T09:59:09;26.92;;;16.70;;
33367;SDS011;19724;51.114;13.906;2022-12-07T10:01:40;21.25;;;13.65;;
33367;SDS011;19724;51.114;13.906;2022-12-07T10:06:40;27.17;;;15.02;;
33367;SDS011;19724;51.114;13.906;2022-12-07T10:09:10;31.10;;;16.20;;
33367;SDS011;19724;51.114;13.906;2022-12-07T10:11:57;23.75;;;14.32;;
33367;SDS011;19724;51.114;13.906;2022-12-07T10:14:27;22.23;;;13.43;;
33367;SDS011;19724;51.114;13.906;2022-12-07T10:16:54;25.52;;;15.05;;
33367;SDS011;19724;51.114;13.906;2022-12-07T10:19:23;25.27;;;16.20;;
33367;SDS011;19724;51.114;13.906;2022-12-07T10:22:04;22.80;;;14.30;;
33367;SDS011;19724;51.114;13.906;2022-12-07T10:24:40;21.85;;;13.05;;
33367;SDS011;19724;51.114;13.906;2022-12-07T10:30:03;26.43;;;13.50;;
33367;SDS011;19724;51.114;13.906;2022-12-07T10:32:34;18.90;;;11.73;;
33367;SDS011;19724;51.114;13.906;2022-12-07T10:35:21;19.73;;;12.48;;
33367;SDS011;19724;51.114;13.906;2022-12-07T10:37:55;22.60;;;13.98;;
33367;SDS011;19724;51.114;13.906;2022-12-07T10:45:44;18.73;;;11.30;;
33367;SDS011;19724;51.114;13.906;2022-12-07T10:54:57;18.80;;;10.55;;
33367;SDS011;19724;51.114;13.906;2022-12-07T11:00:13;19.90;;;11.40;;
33367;SDS011;19724;51.114;13.906;2022-12-07T11:02:54;15.77;;;10.32;;
33367;SDS011;19724;51.114;13.906;2022-12-07T11:05:53;15.88;;;10.50;;
33367;SDS011;19724;51.114;13.906;2022-12-07T11:11:04;21.92;;;10.82;;
33367;SDS011;19724;51.114;13.906;2022-12-07T11:13:47;18.83;;;11.15;;
33367;SDS011;19724;51.114;13.906;2022-12-07T11:16:21;13.95;;;8.77;;
33367;SDS011;19724;51.114;13.906;2022-12-07T11:27:19;21.10;;;12.30;;
33367;SDS011;19724;51.114;13.906;2022-12-07T11:33:19;18.52;;;12.18;;
33367;SDS011;19724;51.114;13.906;2022-12-07T11:38:50;26.70;;;14.73;;
33367;SDS011;19724;51.114;13.906;2022-12-07T11:41:20;23.77;;;13.88;;
33367;SDS011;19724;51.114;13.906;2022-12-07T11:46:19;22.25;;;13.68;;
33367;SDS011;19724;51.114;13.906;2022-12-07T11:49:13;29.77;;;15.15;;
33367;SDS011;19724;51.114;13.906;2022-12-07T11:51:46;28.27;;;15.05;;
33367;SDS011;19724;51.114;13.906;2022-12-07T11:54:27;20.02;;;13.70;;
33367;SDS011;19724;51.114;13.906;2022-12-07T11:56:57;20.25;;;13.18;;
33367;SDS011;19724;51.114;13.906;2022-12-07T11:59:30;20.67;;;12.20;;
33367;SDS011;19724;51.114;13.906;2022-12-07T12:02:13;16.15;;;10.45;;
33367;SDS011;19724;51.114;13.906;2022-12-07T12:04:49;16.70;;;10.27;;
33367;SDS011;19724;51.114;13.906;2022-12-07T12:07:21;15.77;;;9.50;;
33367;SDS011;19724;51.114;13.906;2022-12-07T12:10:03;15.13;;;10.27;;
33367;SDS011;19724;51.114;13.906;2022-12-07T12:16:06;16.83;;;11.57;;
33367;SDS011;19724;51.114;13.906;2022-12-07T12:21:57;20.70;;;13.15;;
33367;SDS011;19724;51.114;13.906;2022-12-07T12:24:35;24.48;;;13.50;;
33367;SDS011;19724;51.114;13.906;2022-12-07T12:27:08;21.40;;;13.93;;
33367;SDS011;19724;51.114;13.906;2022-12-07T12:29:42;22.00;;;14.38;;
33367;SDS011;19724;51.114;13.906;2022-12-07T12:32:21;27.00;;;13.93;;
33367;SDS011;19724;51.114;13.906;2022-12-07T12:37:53;19.80;;;13.32;;
33367;SDS011;19724;51.114;13.906;2022-12-07T12:42:48;20.58;;;13.60;;
33367;SDS011;19724;51.114;13.906;2022-12-07T12:47:54;22.70;;;13.98;;
33367;SDS011;19724;51.114;13.906;2022-12-07T12:50:49;29.35;;;14.57;;
33367;SDS011;19724;51.114;13.906;2022-12-07T12:53:53;21.77;;;12.48;;
33367;SDS011;19724;51.114;13.906;2022-12-07T12:59:57;23.98;;;15.07;;
33367;SDS011;19724;51.114;13.906;2022-12-07T13:02:24;21.27;;;12.93;;
33367;SDS011;19724;51.114;13.906;2022-12-07T13:04:59;23.15;;;14.65;;
33367;SDS011;19724;51.114;13.906;2022-12-07T13:10:32;21.40;;;14.77;;
33367;SDS011;19724;51.114;13.906;2022-12-07T13:15:46;24.13;;;13.10;;
33367;SDS011;19724;51.114;13.906;2022-12-07T13:23:16;19.63;;;12.05;;
33367;SDS011;19724;51.114;13.906;2022-12-07T13:25:46;20.35;;;11.68;;
33367;SDS011;19724;51.114;13.906;2022-12-07T13:28:17;17.00;;;11.23;;
33367;SDS011;19724;51.114;13.906;2022-12-07T13:33:44;20.83;;;12.38;;
33367;SDS011;19724;51.114;13.906;2022-12-07T13:36:17;14.57;;;9.18;;
33367;SDS011;19724;51.114;13.906;2022-12-07T13:38:55;18.67;;;10.73;;
33367;SDS011;19724;51.114;13.906;2022-12-07T13:41:28;12.10;;;9.15;;
33367;SDS011;19724;51.114;13.906;2022-12-07T13:44:01;13.38;;;7.05;;
33367;SDS011;19724;51.114;13.906;2022-12-07T13:49:24;9.55;;;5.85;;
33367;SDS011;19724;51.114;13.906;2022-12-07T13:51:50;10.50;;;6.32;;
33367;SDS011;19724;51.114;13.906;2022-12-07T13:54:16;13.02;;;6.68;;
33367;SDS011;19724;51.114;13.906;2022-12-07T13:56:44;9.05;;;5.70;;
33367;SDS011;19724;51.114;13.906;2022-12-07T13:59:17;10.73;;;6.18;;
33367;SDS011;19724;51.114;13.906;2022-12-07T14:01:46;12.65;;;7.40;;
33367;SDS011;19724;51.114;13.906;2022-12-07T14:04:17;10.20;;;6.78;;
33367;SDS011;19724;51.114;13.906;2022-12-07T14:06:57;12.40;;;7.75;;
33367;SDS011;19724;51.114;13.906;2022-12-07T14:09:24;15.35;;;8.10;;
33367;SDS011;19724;51.114;13.906;2022-12-07T14:11:55;16.30;;;8.88;;
33367;SDS011;19724;51.114;13.906;2022-12-07T14:14:26;16.42;;;10.43;;
33367;SDS011;19724;51.114;13.906;2022-12-07T14:17:01;19.05;;;11.30;;
33367;SDS011;19724;51.114;13.906;2022-12-07T14:19:57;17.63;;;10.68;;
33367;SDS011;19724;51.114;13.906;2022-12-07T14:27:49;20.13;;;11.80;;
33367;SDS011;19724;51.114;13.906;2022-12-07T14:30:18;19.52;;;12.25;;
33367;SDS011;19724;51.114;13.906;2022-12-07T14:32:44;18.70;;;11.60;;
33367;SDS011;19724;51.114;13.906;2022-12-07T14:35:14;19.27;;;12.15;;
33367;SDS011;19724;51.114;13.906;2022-12-07T14:37:42;23.55;;;12.98;;
33367;SDS011;19724;51.114;13.906;2022-12-07T14:40:12;22.45;;;13.43;;
33367;SDS011;19724;51.114;13.906;2022-12-07T14:42:39;27.13;;;13.05;;
33367;SDS011;19724;51.114;13.906;2022-12-07T14:45:10;22.88;;;14.23;;
33367;SDS011;19724;51.114;13.906;2022-12-07T14:47:39;24.60;;;13.85;;
33367;SDS011;19724;51.114;13.906;2022-12-07T14:50:05;30.25;;;15.52;;
33367;SDS011;19724;51.114;13.906;2022-12-07T14:52:31;24.75;;;15.20;;
33367;SDS011;19724;51.114;13.906;2022-12-07T14:54:57;27.75;;;15.13;;
33367;SDS011;19724;51.114;13.906;2022-12-07T14:57:23;25.52;;;13.75;;
33367;SDS011;19724;51.114;13.906;2022-12-07T14:59:48;22.23;;;13.27;;
33367;SDS011;19724;51.114;13.906;2022-12-07T15:02:14;23.50;;;12.85;;
33367;SDS011;19724;51.114;13.906;2022-12-07T15:04:40;25.05;;;14.60;;
33367;SDS011;19724;51.114;13.906;2022-12-07T15:07:06;23.83;;;14.90;;
33367;SDS011;19724;51.114;13.906;2022-12-07T15:09:38;23.80;;;14.20;;
33367;SDS011;19724;51.114;13.906;2022-12-07T15:12:04;22.38;;;14.55;;
33367;SDS011;19724;51.114;13.906;2022-12-07T15:14:29;25.63;;;15.65;;
33367;SDS011;19724;51.114;13.906;2022-12-07T15:16:55;26.38;;;15.55;;
33367;SDS011;19724;51.114;13.906;2022-12-07T15:19:21;27.80;;;14.38;;
33367;SDS011;19724;51.114;13.906;2022-12-07T15:21:50;21.08;;;13.27;;
33367;SDS011;19724;51.114;13.906;2022-12-07T15:24:15;19.30;;;11.82;;
33367;SDS011;19724;51.114;13.906;2022-12-07T15:26:41;12.93;;;8.15;;
33367;SDS011;19724;51.114;13.906;2022-12-07T15:29:07;10.98;;;6.00;;
33367;SDS011;19724;51.114;13.906;2022-12-07T15:31:33;9.68;;;5.82;;
33367;SDS011;19724;51.114;13.906;2022-12-07T15:33:59;9.45;;;5.43;;
33367;SDS011;19724;51.114;13.906;2022-12-07T15:36:26;13.43;;;6.53;;
33367;SDS011;19724;51.114;13.906;2022-12-07T15:38:53;11.25;;;7.55;;
33367;SDS011;19724;51.114;13.906;2022-12-07T15:41:19;12.82;;;7.85;;
33367;SDS011;19724;51.114;13.906;2022-12-07T15:43:45;12.43;;;7.28;;
33367;SDS011;19724;51.114;13.906;2022-12-07T15:46:30;14.67;;;7.73;;
33367;SDS011;19724;51.114;13.906;2022-12-07T15:48:57;14.32;;;8.32;;
33367;SDS011;19724;51.114;13.906;2022-12-07T15:51:22;16.88;;;8.88;;
33367;SDS011;19724;51.114;13.906;2022-12-07T15:53:48;15.18;;;8.70;;
33367;SDS011;19724;51.114;13.906;2022-12-07T15:56:13;14.63;;;9.93;;
33367;SDS011;19724;51.114;13.906;2022-12-07T15:58:39;20.30;;;9.50;;
33367;SDS011;19724;51.114;13.906;2022-12-07T16:01:11;16.20;;;9.00;;
33367;SDS011;19724;51.114;13.906;2022-12-07T16:03:38;15.10;;;9.93;;
33367;SDS011;19724;51.114;13.906;2022-12-07T16:06:04;15.23;;;9.95;;
33367;SDS011;19724;51.114;13.906;2022-12-07T16:08:30;17.08;;;9.85;;
33367;SDS011;19724;51.114;13.906;2022-12-07T16:10:55;18.05;;;10.25;;
33367;SDS011;19724;51.114;13.906;2022-12-07T16:13:21;20.77;;;13.60;;